首页
METAR-TAF:

METAR-TAF

机场 :

傑克遜維爾, 北卡罗来纳州, 美国

纬度: 34-42-21N, 经度: 077-26-27W, 海拔: 7米

当前天气观测

该预报发布于16分钟前的22:56 UTC
风速12节,风向南转南东
温度 16°C
湿度 82%
气压 1021 hPa
能見度: 16.1公里
少量云层高于4000英尺
多云层高于8500英尺

METAR: KNCA 232256Z 16012KT 10SM FEW040 BKN085 16/13 A3015 RMK AO2 SLP213 T01610128

时间: 18:12 (23:12 UTC)

预报

预报有效从23日的 15点(UTC)到 24日的 15点(UTC)
风速9节,风向南转南东
能见度10公里或以上
多云层高于8000英尺
多云层高于25000英尺
成为
从 23日的 19点(UTC)到 23日的 20点(UTC)
风速13节,风向
能见度10公里或以上
多云层高于6000英尺
多云层高于12000英尺
短暂存在
从 24日的 03点(UTC)到 24日的 09点(UTC)
风速14节,风向
能見度: 8000
多云层高于1000英尺
多云层高于1500英尺
小阵雨, 轻雾
从 24日的 1000点(UTC)
风速13节,风向,有时为20节阵风
能見度: 6000
多云层高于1000英尺
多云层高于6000英尺
小阵雨, 轻雾
从 24日的 1400点(UTC)
风速13节,风向,有时为20节阵风
能見度: 4800
散云层高于800英尺
多云层高于1500英尺
阴天层高于2500英尺
阵雨, 轻雾

TAF: KNCA 2315/2415 15009KT 9999 BKN080 BKN250 QNH3029INS BECMG 2319/2320 18013KT 9999 BKN060 BKN120 QNH3012INS TEMPO 2403/2409 18014KT 8000 -SHRA BR BKN010 BKN015 FM241000 19013G20KT 6000 -SHRA BR BKN010 BKN060 QNH2994INS FM241400 19013G20KT 4800 SHRA BR SCT008 BKN015 OVC025 QNH2976INS T13/2323Z T17Z/2415Z

超过4000个机场的气象观测和天气预报(METAR&TAF报告)。

可查询的气象台以黄色和红色小点在地图上表示。

将鼠标移到小点上方,可查看气象台名称。

然后点击查看天气观测和预报。

如需切换地图:点击带黑十字的绿色按钮放大地图;点击带横线的绿色按钮缩小地图;或者点击绿色箭头查看邻近地区的地图。


METAR-TAF: